sensor_id;sensor_type;location;lat;lon;timestamp;P1;durP1;ratioP1;P2;durP2;ratioP2
27706;SDS011;36332;51.384;0.040;2023-02-28T00:01:30;13.68;;;2.58;;
27706;SDS011;36332;51.384;0.040;2023-02-28T00:03:59;6.47;;;2.63;;
27706;SDS011;36332;51.384;0.040;2023-02-28T00:06:27;11.20;;;2.70;;
27706;SDS011;36332;51.384;0.040;2023-02-28T00:08:55;8.68;;;3.10;;
27706;SDS011;36332;51.384;0.040;2023-02-28T00:11:23;11.15;;;2.80;;
27706;SDS011;36332;51.384;0.040;2023-02-28T00:13:51;14.60;;;3.67;;
27706;SDS011;36332;51.384;0.040;2023-02-28T00:16:20;6.20;;;3.10;;
27706;SDS011;36332;51.384;0.040;2023-02-28T00:18:49;6.03;;;2.63;;
27706;SDS011;36332;51.384;0.040;2023-02-28T00:21:18;11.50;;;3.00;;
27706;SDS011;36332;51.384;0.040;2023-02-28T00:23:46;11.73;;;2.90;;
27706;SDS011;36332;51.384;0.040;2023-02-28T00:26:14;6.00;;;2.53;;
27706;SDS011;36332;51.384;0.040;2023-02-28T00:28:45;10.25;;;3.00;;
27706;SDS011;36332;51.384;0.040;2023-02-28T00:31:12;9.45;;;2.95;;
27706;SDS011;36332;51.384;0.040;2023-02-28T00:33:40;5.35;;;2.22;;
27706;SDS011;36332;51.384;0.040;2023-02-28T00:36:09;7.55;;;2.65;;
27706;SDS011;36332;51.384;0.040;2023-02-28T00:38:38;10.02;;;2.75;;
27706;SDS011;36332;51.384;0.040;2023-02-28T00:41:07;9.65;;;3.00;;
27706;SDS011;36332;51.384;0.040;2023-02-28T00:43:36;9.10;;;3.10;;
27706;SDS011;36332;51.384;0.040;2023-02-28T00:46:04;10.48;;;2.70;;
27706;SDS011;36332;51.384;0.040;2023-02-28T00:48:34;10.60;;;2.97;;
27706;SDS011;36332;51.384;0.040;2023-02-28T00:51:03;7.22;;;2.70;;
27706;SDS011;36332;51.384;0.040;2023-02-28T00:53:31;15.30;;;3.15;;
27706;SDS011;36332;51.384;0.040;2023-02-28T00:56:00;9.65;;;2.72;;
27706;SDS011;36332;51.384;0.040;2023-02-28T00:58:28;15.02;;;3.35;;
27706;SDS011;36332;51.384;0.040;2023-02-28T01:00:56;10.00;;;3.60;;
27706;SDS011;36332;51.384;0.040;2023-02-28T01:03:24;20.00;;;3.67;;
27706;SDS011;36332;51.384;0.040;2023-02-28T01:05:52;9.27;;;3.30;;
27706;SDS011;36332;51.384;0.040;2023-02-28T01:08:22;12.40;;;4.22;;
27706;SDS011;36332;51.384;0.040;2023-02-28T01:10:50;10.65;;;2.83;;
27706;SDS011;36332;51.384;0.040;2023-02-28T01:13:18;13.20;;;4.00;;
27706;SDS011;36332;51.384;0.040;2023-02-28T01:15:49;4.78;;;2.72;;
27706;SDS011;36332;51.384;0.040;2023-02-28T01:18:19;12.95;;;3.40;;
27706;SDS011;36332;51.384;0.040;2023-02-28T01:20:47;6.95;;;3.20;;
27706;SDS011;36332;51.384;0.040;2023-02-28T01:23:16;8.90;;;2.95;;
27706;SDS011;36332;51.384;0.040;2023-02-28T01:25:44;12.40;;;3.25;;
27706;SDS011;36332;51.384;0.040;2023-02-28T01:28:12;5.80;;;2.97;;
27706;SDS011;36332;51.384;0.040;2023-02-28T01:30:39;10.68;;;3.60;;
27706;SDS011;36332;51.384;0.040;2023-02-28T01:33:07;17.75;;;4.45;;
27706;SDS011;36332;51.384;0.040;2023-02-28T01:35:36;18.88;;;4.43;;
27706;SDS011;36332;51.384;0.040;2023-02-28T01:38:04;12.57;;;3.88;;
27706;SDS011;36332;51.384;0.040;2023-02-28T01:40:48;19.08;;;4.75;;
27706;SDS011;36332;51.384;0.040;2023-02-28T01:46:09;9.73;;;3.85;;
27706;SDS011;36332;51.384;0.040;2023-02-28T01:51:35;9.25;;;3.72;;
27706;SDS011;36332;51.384;0.040;2023-02-28T01:54:26;14.93;;;3.67;;
27706;SDS011;36332;51.384;0.040;2023-02-28T01:56:58;19.77;;;4.47;;
27706;SDS011;36332;51.384;0.040;2023-02-28T01:59:40;13.38;;;3.63;;
27706;SDS011;36332;51.384;0.040;2023-02-28T02:02:18;16.17;;;5.22;;
27706;SDS011;36332;51.384;0.040;2023-02-28T02:04:55;12.80;;;4.00;;
27706;SDS011;36332;51.384;0.040;2023-02-28T02:07:32;17.70;;;4.85;;
27706;SDS011;36332;51.384;0.040;2023-02-28T02:10:18;16.02;;;5.70;;
27706;SDS011;36332;51.384;0.040;2023-02-28T02:13:13;13.50;;;4.40;;
27706;SDS011;36332;51.384;0.040;2023-02-28T02:18:35;11.27;;;4.78;;
27706;SDS011;36332;51.384;0.040;2023-02-28T02:29:55;12.43;;;4.35;;
27706;SDS011;36332;51.384;0.040;2023-02-28T02:43:53;14.48;;;4.93;;
27706;SDS011;36332;51.384;0.040;2023-02-28T02:49:00;10.63;;;4.53;;
27706;SDS011;36332;51.384;0.040;2023-02-28T02:51:34;16.67;;;4.45;;
27706;SDS011;36332;51.384;0.040;2023-02-28T02:54:08;13.07;;;4.85;;
27706;SDS011;36332;51.384;0.040;2023-02-28T02:56:44;19.02;;;4.97;;
27706;SDS011;36332;51.384;0.040;2023-02-28T02:59:15;14.70;;;4.80;;
27706;SDS011;36332;51.384;0.040;2023-02-28T03:01:53;13.10;;;4.72;;
27706;SDS011;36332;51.384;0.040;2023-02-28T03:04:24;16.33;;;5.85;;
27706;SDS011;36332;51.384;0.040;2023-02-28T03:06:55;15.35;;;4.78;;
27706;SDS011;36332;51.384;0.040;2023-02-28T03:09:23;16.10;;;5.07;;
27706;SDS011;36332;51.384;0.040;2023-02-28T03:11:54;22.45;;;5.82;;
27706;SDS011;36332;51.384;0.040;2023-02-28T03:33:49;21.35;;;6.43;;
27706;SDS011;36332;51.384;0.040;2023-02-28T03:36:22;22.17;;;5.50;;
27706;SDS011;36332;51.384;0.040;2023-02-28T03:39:24;18.27;;;5.78;;
27706;SDS011;36332;51.384;0.040;2023-02-28T03:42:02;15.13;;;5.07;;
27706;SDS011;36332;51.384;0.040;2023-02-28T03:44:42;19.40;;;6.50;;
27706;SDS011;36332;51.384;0.040;2023-02-28T03:47:19;17.58;;;5.03;;
27706;SDS011;36332;51.384;0.040;2023-02-28T03:50:00;20.13;;;6.03;;
27706;SDS011;36332;51.384;0.040;2023-02-28T03:52:35;19.75;;;5.43;;
27706;SDS011;36332;51.384;0.040;2023-02-28T03:55:10;10.77;;;5.20;;
27706;SDS011;36332;51.384;0.040;2023-02-28T03:57:41;8.73;;;4.30;;
27706;SDS011;36332;51.384;0.040;2023-02-28T04:00:40;13.50;;;6.20;;
27706;SDS011;36332;51.384;0.040;2023-02-28T04:03:13;12.68;;;4.63;;
27706;SDS011;36332;51.384;0.040;2023-02-28T04:05:49;16.15;;;4.93;;
27706;SDS011;36332;51.384;0.040;2023-02-28T04:08:19;12.38;;;5.88;;
27706;SDS011;36332;51.384;0.040;2023-02-28T04:10:50;22.10;;;6.78;;
27706;SDS011;36332;51.384;0.040;2023-02-28T04:13:25;16.92;;;5.32;;
27706;SDS011;36332;51.384;0.040;2023-02-28T04:15:52;16.05;;;4.60;;
27706;SDS011;36332;51.384;0.040;2023-02-28T04:18:20;19.88;;;5.50;;
27706;SDS011;36332;51.384;0.040;2023-02-28T04:20:48;10.40;;;4.43;;
27706;SDS011;36332;51.384;0.040;2023-02-28T04:23:15;12.65;;;5.00;;
27706;SDS011;36332;51.384;0.040;2023-02-28T04:25:42;16.23;;;4.57;;
27706;SDS011;36332;51.384;0.040;2023-02-28T04:28:10;11.85;;;5.15;;
27706;SDS011;36332;51.384;0.040;2023-02-28T04:30:37;12.82;;;5.53;;
27706;SDS011;36332;51.384;0.040;2023-02-28T04:33:06;26.75;;;6.30;;
27706;SDS011;36332;51.384;0.040;2023-02-28T04:35:33;10.93;;;4.72;;
27706;SDS011;36332;51.384;0.040;2023-02-28T04:38:01;13.55;;;5.47;;
27706;SDS011;36332;51.384;0.040;2023-02-28T04:40:29;12.48;;;5.57;;
27706;SDS011;36332;51.384;0.040;2023-02-28T04:42:56;16.30;;;5.20;;
27706;SDS011;36332;51.384;0.040;2023-02-28T04:45:24;16.25;;;6.25;;
27706;SDS011;36332;51.384;0.040;2023-02-28T04:47:52;23.15;;;5.47;;
27706;SDS011;36332;51.384;0.040;2023-02-28T04:50:20;15.48;;;6.30;;
27706;SDS011;36332;51.384;0.040;2023-02-28T04:52:48;11.80;;;5.75;;
27706;SDS011;36332;51.384;0.040;2023-02-28T04:55:15;16.42;;;5.35;;
27706;SDS011;36332;51.384;0.040;2023-02-28T04:57:43;13.07;;;5.70;;
27706;SDS011;36332;51.384;0.040;2023-02-28T05:00:11;8.15;;;5.25;;
27706;SDS011;36332;51.384;0.040;2023-02-28T05:02:42;24.70;;;6.50;;
27706;SDS011;36332;51.384;0.040;2023-02-28T05:05:10;19.50;;;5.32;;
27706;SDS011;36332;51.384;0.040;2023-02-28T05:07:38;17.25;;;5.45;;
27706;SDS011;36332;51.384;0.040;2023-02-28T05:10:06;14.52;;;6.53;;
27706;SDS011;36332;51.384;0.040;2023-02-28T05:12:34;18.00;;;5.43;;
27706;SDS011;36332;51.384;0.040;2023-02-28T05:15:03;17.95;;;5.53;;
27706;SDS011;36332;51.384;0.040;2023-02-28T05:17:31;19.13;;;5.93;;
27706;SDS011;36332;51.384;0.040;2023-02-28T05:19:59;10.75;;;5.28;;
27706;SDS011;36332;51.384;0.040;2023-02-28T05:22:41;17.23;;;5.85;;
27706;SDS011;36332;51.384;0.040;2023-02-28T05:25:15;9.85;;;5.35;;
27706;SDS011;36332;51.384;0.040;2023-02-28T05:27:46;10.85;;;7.07;;
27706;SDS011;36332;51.384;0.040;2023-02-28T05:30:14;12.10;;;5.25;;
27706;SDS011;36332;51.384;0.040;2023-02-28T05:32:42;12.82;;;5.60;;
27706;SDS011;36332;51.384;0.040;2023-02-28T05:35:10;17.38;;;6.63;;
27706;SDS011;36332;51.384;0.040;2023-02-28T05:37:39;17.75;;;6.07;;
27706;SDS011;36332;51.384;0.040;2023-02-28T05:40:07;15.32;;;5.30;;
27706;SDS011;36332;51.384;0.040;2023-02-28T05:42:38;21.83;;;6.50;;
27706;SDS011;36332;51.384;0.040;2023-02-28T05:45:06;16.92;;;5.60;;
27706;SDS011;36332;51.384;0.040;2023-02-28T05:47:35;12.82;;;5.53;;
27706;SDS011;36332;51.384;0.040;2023-02-28T05:50:03;14.90;;;5.72;;
27706;SDS011;36332;51.384;0.040;2023-02-28T05:52:31;16.98;;;6.43;;
27706;SDS011;36332;51.384;0.040;2023-02-28T05:54:59;12.77;;;5.20;;
27706;SDS011;36332;51.384;0.040;2023-02-28T05:57:27;12.52;;;5.65;;
27706;SDS011;36332;51.384;0.040;2023-02-28T05:59:54;21.58;;;6.07;;
27706;SDS011;36332;51.384;0.040;2023-02-28T06:02:22;13.73;;;6.40;;
27706;SDS011;36332;51.384;0.040;2023-02-28T06:04:49;14.13;;;6.57;;
27706;SDS011;36332;51.384;0.040;2023-02-28T06:07:17;11.27;;;5.57;;
27706;SDS011;36332;51.384;0.040;2023-02-28T06:09:45;19.20;;;5.95;;
27706;SDS011;36332;51.384;0.040;2023-02-28T06:12:12;13.30;;;5.28;;
27706;SDS011;36332;51.384;0.040;2023-02-28T06:14:40;11.57;;;6.05;;
27706;SDS011;36332;51.384;0.040;2023-02-28T06:17:08;18.73;;;7.22;;
27706;SDS011;36332;51.384;0.040;2023-02-28T06:19:37;13.75;;;7.20;;
27706;SDS011;36332;51.384;0.040;2023-02-28T06:22:06;17.40;;;7.40;;
27706;SDS011;36332;51.384;0.040;2023-02-28T06:24:34;21.55;;;7.10;;
27706;SDS011;36332;51.384;0.040;2023-02-28T06:27:02;18.45;;;6.35;;
27706;SDS011;36332;51.384;0.040;2023-02-28T06:29:33;18.27;;;6.07;;
27706;SDS011;36332;51.384;0.040;2023-02-28T06:32:01;14.15;;;6.53;;
27706;SDS011;36332;51.384;0.040;2023-02-28T06:34:29;17.50;;;7.10;;
27706;SDS011;36332;51.384;0.040;2023-02-28T06:36:57;20.38;;;7.75;;
27706;SDS011;36332;51.384;0.040;2023-02-28T06:39:29;19.42;;;7.93;;
27706;SDS011;36332;51.384;0.040;2023-02-28T06:41:57;16.80;;;6.85;;
27706;SDS011;36332;51.384;0.040;2023-02-28T06:44:25;13.27;;;7.70;;
27706;SDS011;36332;51.384;0.040;2023-02-28T06:46:53;18.58;;;8.07;;
27706;SDS011;36332;51.384;0.040;2023-02-28T06:49:21;19.42;;;7.43;;
27706;SDS011;36332;51.384;0.040;2023-02-28T06:51:48;19.80;;;7.50;;
27706;SDS011;36332;51.384;0.040;2023-02-28T06:54:16;23.10;;;8.32;;
27706;SDS011;36332;51.384;0.040;2023-02-28T06:56:44;28.77;;;9.25;;
27706;SDS011;36332;51.384;0.040;2023-02-28T06:59:12;19.17;;;9.10;;
27706;SDS011;36332;51.384;0.040;2023-02-28T07:01:40;20.13;;;9.15;;
27706;SDS011;36332;51.384;0.040;2023-02-28T07:04:08;22.85;;;7.05;;
27706;SDS011;36332;51.384;0.040;2023-02-28T07:06:37;20.30;;;8.95;;
27706;SDS011;36332;51.384;0.040;2023-02-28T07:09:05;16.95;;;8.48;;
27706;SDS011;36332;51.384;0.040;2023-02-28T07:11:32;25.95;;;9.70;;
27706;SDS011;36332;51.384;0.040;2023-02-28T07:13:59;22.83;;;8.55;;
27706;SDS011;36332;51.384;0.040;2023-02-28T07:16:27;15.80;;;8.75;;
27706;SDS011;36332;51.384;0.040;2023-02-28T07:18:55;25.60;;;9.10;;
27706;SDS011;36332;51.384;0.040;2023-02-28T07:21:22;18.85;;;8.07;;
27706;SDS011;36332;51.384;0.040;2023-02-28T07:23:50;29.73;;;8.05;;
27706;SDS011;36332;51.384;0.040;2023-02-28T07:26:18;15.23;;;8.05;;
27706;SDS011;36332;51.384;0.040;2023-02-28T07:28:47;16.55;;;8.00;;
27706;SDS011;36332;51.384;0.040;2023-02-28T07:31:15;19.52;;;8.68;;
27706;SDS011;36332;51.384;0.040;2023-02-28T07:33:44;20.13;;;8.40;;
27706;SDS011;36332;51.384;0.040;2023-02-28T07:36:13;18.90;;;8.65;;
27706;SDS011;36332;51.384;0.040;2023-02-28T07:38:42;18.00;;;8.15;;
27706;SDS011;36332;51.384;0.040;2023-02-28T07:41:15;21.00;;;8.27;;
27706;SDS011;36332;51.384;0.040;2023-02-28T07:43:43;20.67;;;8.43;;
27706;SDS011;36332;51.384;0.040;2023-02-28T07:46:12;16.25;;;7.78;;
27706;SDS011;36332;51.384;0.040;2023-02-28T07:48:45;15.85;;;7.35;;
27706;SDS011;36332;51.384;0.040;2023-02-28T07:51:13;17.17;;;8.15;;
27706;SDS011;36332;51.384;0.040;2023-02-28T07:53:41;21.85;;;8.45;;
27706;SDS011;36332;51.384;0.040;2023-02-28T07:56:09;14.77;;;8.35;;
27706;SDS011;36332;51.384;0.040;2023-02-28T07:58:37;12.85;;;7.22;;
27706;SDS011;36332;51.384;0.040;2023-02-28T08:01:06;12.43;;;6.78;;
27706;SDS011;36332;51.384;0.040;2023-02-28T08:03:35;15.93;;;7.95;;
27706;SDS011;36332;51.384;0.040;2023-02-28T08:06:03;15.45;;;6.47;;
27706;SDS011;36332;51.384;0.040;2023-02-28T08:08:32;11.20;;;6.93;;
27706;SDS011;36332;51.384;0.040;2023-02-28T08:11:01;13.50;;;6.57;;
27706;SDS011;36332;51.384;0.040;2023-02-28T08:13:30;16.13;;;7.35;;
27706;SDS011;36332;51.384;0.040;2023-02-28T08:15:57;9.48;;;5.32;;
27706;SDS011;36332;51.384;0.040;2023-02-28T08:18:28;8.45;;;6.15;;
27706;SDS011;36332;51.384;0.040;2023-02-28T08:20:55;12.63;;;5.57;;
27706;SDS011;36332;51.384;0.040;2023-02-28T08:23:24;12.60;;;5.30;;
27706;SDS011;36332;51.384;0.040;2023-02-28T08:25:55;8.75;;;4.95;;
27706;SDS011;36332;51.384;0.040;2023-02-28T08:28:23;14.05;;;5.25;;
27706;SDS011;36332;51.384;0.040;2023-02-28T08:30:53;14.98;;;5.97;;
27706;SDS011;36332;51.384;0.040;2023-02-28T08:33:22;11.38;;;6.20;;
27706;SDS011;36332;51.384;0.040;2023-02-28T08:35:53;11.43;;;5.60;;
27706;SDS011;36332;51.384;0.040;2023-02-28T08:38:24;9.52;;;4.82;;
27706;SDS011;36332;51.384;0.040;2023-02-28T08:40:58;24.08;;;5.40;;
27706;SDS011;36332;51.384;0.040;2023-02-28T08:43:27;9.32;;;4.55;;
27706;SDS011;36332;51.384;0.040;2023-02-28T08:45:55;9.68;;;4.97;;
27706;SDS011;36332;51.384;0.040;2023-02-28T08:48:27;7.00;;;4.60;;
27706;SDS011;36332;51.384;0.040;2023-02-28T08:53:33;7.53;;;4.15;;
27706;SDS011;36332;51.384;0.040;2023-02-28T08:56:04;9.30;;;4.95;;
27706;SDS011;36332;51.384;0.040;2023-02-28T08:58:33;11.30;;;4.40;;
27706;SDS011;36332;51.384;0.040;2023-02-28T09:01:13;8.70;;;4.18;;
27706;SDS011;36332;51.384;0.040;2023-02-28T09:06:18;9.73;;;3.42;;
27706;SDS011;36332;51.384;0.040;2023-02-28T09:08:47;9.00;;;3.40;;
27706;SDS011;36332;51.384;0.040;2023-02-28T09:11:15;8.50;;;3.55;;
27706;SDS011;36332;51.384;0.040;2023-02-28T09:13:43;3.90;;;2.90;;
27706;SDS011;36332;51.384;0.040;2023-02-28T09:16:12;5.10;;;3.15;;
27706;SDS011;36332;51.384;0.040;2023-02-28T09:18:41;11.55;;;4.25;;
27706;SDS011;36332;51.384;0.040;2023-02-28T09:21:11;4.05;;;2.90;;
27706;SDS011;36332;51.384;0.040;2023-02-28T09:23:41;8.20;;;3.88;;
27706;SDS011;36332;51.384;0.040;2023-02-28T09:26:14;6.85;;;3.15;;
27706;SDS011;36332;51.384;0.040;2023-02-28T09:28:43;5.45;;;3.13;;
27706;SDS011;36332;51.384;0.040;2023-02-28T09:31:16;8.05;;;3.13;;
27706;SDS011;36332;51.384;0.040;2023-02-28T09:33:50;9.45;;;3.20;;
27706;SDS011;36332;51.384;0.040;2023-02-28T09:36:20;10.52;;;3.30;;
27706;SDS011;36332;51.384;0.040;2023-02-28T09:39:00;10.77;;;3.50;;
27706;SDS011;36332;51.384;0.040;2023-02-28T09:41:28;10.63;;;3.80;;
27706;SDS011;36332;51.384;0.040;2023-02-28T09:44:04;10.38;;;3.50;;
27706;SDS011;36332;51.384;0.040;2023-02-28T09:46:40;8.27;;;4.85;;
27706;SDS011;36332;51.384;0.040;2023-02-28T09:49:17;8.18;;;3.58;;
27706;SDS011;36332;51.384;0.040;2023-02-28T09:51:58;8.20;;;3.55;;
27706;SDS011;36332;51.384;0.040;2023-02-28T09:54:31;7.53;;;4.05;;
27706;SDS011;36332;51.384;0.040;2023-02-28T10:02:45;10.48;;;4.70;;
27706;SDS011;36332;51.384;0.040;2023-02-28T10:05:15;6.90;;;3.78;;
27706;SDS011;36332;51.384;0.040;2023-02-28T10:10:48;15.18;;;7.05;;
27706;SDS011;36332;51.384;0.040;2023-02-28T10:13:28;11.52;;;3.53;;
27706;SDS011;36332;51.384;0.040;2023-02-28T10:16:20;5.25;;;3.85;;
27706;SDS011;36332;51.384;0.040;2023-02-28T10:22:00;12.48;;;3.72;;
27706;SDS011;36332;51.384;0.040;2023-02-28T10:24:44;4.70;;;3.25;;
27706;SDS011;36332;51.384;0.040;2023-02-28T10:27:15;9.50;;;4.05;;
27706;SDS011;36332;51.384;0.040;2023-02-28T10:30:03;8.60;;;3.42;;
27706;SDS011;36332;51.384;0.040;2023-02-28T10:32:33;9.30;;;3.88;;
27706;SDS011;36332;51.384;0.040;2023-02-28T10:35:19;5.07;;;3.38;;
27706;SDS011;36332;51.384;0.040;2023-02-28T10:37:49;9.50;;;3.95;;
27706;SDS011;36332;51.384;0.040;2023-02-28T10:45:32;14.85;;;7.82;;
27706;SDS011;36332;51.384;0.040;2023-02-28T10:48:50;10.02;;;5.35;;
27706;SDS011;36332;51.384;0.040;2023-02-28T10:50:54;9.35;;;5.60;;
27706;SDS011;36332;51.384;0.040;2023-02-28T10:53:28;15.45;;;5.10;;
27706;SDS011;36332;51.384;0.040;2023-02-28T11:01:51;12.27;;;6.25;;
27706;SDS011;36332;51.384;0.040;2023-02-28T11:07:21;14.75;;;7.40;;
27706;SDS011;36332;51.384;0.040;2023-02-28T11:09:52;10.68;;;5.63;;
27706;SDS011;36332;51.384;0.040;2023-02-28T11:12:34;15.43;;;6.95;;
27706;SDS011;36332;51.384;0.040;2023-02-28T11:15:22;6.50;;;3.38;;
27706;SDS011;36332;51.384;0.040;2023-02-28T11:18:00;7.20;;;4.30;;
27706;SDS011;36332;51.384;0.040;2023-02-28T11:20:29;21.40;;;8.77;;
27706;SDS011;36332;51.384;0.040;2023-02-28T11:23:00;13.05;;;6.05;;
27706;SDS011;36332;51.384;0.040;2023-02-28T11:25:35;21.77;;;8.48;;
27706;SDS011;36332;51.384;0.040;2023-02-28T11:28:06;16.55;;;6.18;;
27706;SDS011;36332;51.384;0.040;2023-02-28T11:31:04;13.70;;;4.78;;
27706;SDS011;36332;51.384;0.040;2023-02-28T11:36:13;7.85;;;2.95;;
27706;SDS011;36332;51.384;0.040;2023-02-28T11:38:47;13.32;;;5.82;;
27706;SDS011;36332;51.384;0.040;2023-02-28T11:41:30;13.27;;;4.82;;
27706;SDS011;36332;51.384;0.040;2023-02-28T11:52:18;7.03;;;3.22;;
27706;SDS011;36332;51.384;0.040;2023-02-28T12:05:46;6.43;;;4.10;;
27706;SDS011;36332;51.384;0.040;2023-02-28T12:08:26;10.43;;;4.72;;
27706;SDS011;36332;51.384;0.040;2023-02-28T12:11:27;9.07;;;5.10;;
27706;SDS011;36332;51.384;0.040;2023-02-28T12:14:09;21.08;;;7.10;;
27706;SDS011;36332;51.384;0.040;2023-02-28T12:22:30;7.95;;;4.65;;
27706;SDS011;36332;51.384;0.040;2023-02-28T12:27:36;8.20;;;3.95;;
27706;SDS011;36332;51.384;0.040;2023-02-28T12:30:16;7.45;;;3.40;;
27706;SDS011;36332;51.384;0.040;2023-02-28T12:32:55;5.95;;;3.28;;
27706;SDS011;36332;51.384;0.040;2023-02-28T12:35:32;9.70;;;4.00;;
27706;SDS011;36332;51.384;0.040;2023-02-28T12:43:49;9.15;;;3.95;;
27706;SDS011;36332;51.384;0.040;2023-02-28T12:49:00;5.93;;;3.65;;
27706;SDS011;36332;51.384;0.040;2023-02-28T12:51:35;4.28;;;3.75;;
27706;SDS011;36332;51.384;0.040;2023-02-28T12:54:21;10.80;;;4.65;;
27706;SDS011;36332;51.384;0.040;2023-02-28T13:02:19;6.72;;;3.78;;
27706;SDS011;36332;51.384;0.040;2023-02-28T13:07:40;4.95;;;2.85;;
27706;SDS011;36332;51.384;0.040;2023-02-28T13:10:22;4.57;;;2.83;;
27706;SDS011;36332;51.384;0.040;2023-02-28T13:12:51;4.22;;;2.65;;
27706;SDS011;36332;51.384;0.040;2023-02-28T13:15:27;6.95;;;2.78;;
27706;SDS011;36332;51.384;0.040;2023-02-28T13:17:56;3.30;;;2.40;;
27706;SDS011;36332;51.384;0.040;2023-02-28T13:20:34;3.53;;;2.63;;
27706;SDS011;36332;51.384;0.040;2023-02-28T13:23:03;6.55;;;3.30;;
27706;SDS011;36332;51.384;0.040;2023-02-28T13:28:09;4.18;;;2.80;;
27706;SDS011;36332;51.384;0.040;2023-02-28T13:36:08;6.35;;;3.72;;
27706;SDS011;36332;51.384;0.040;2023-02-28T13:38:41;6.00;;;2.35;;
27706;SDS011;36332;51.384;0.040;2023-02-28T13:44:05;2.72;;;2.17;;
27706;SDS011;36332;51.384;0.040;2023-02-28T14:06:37;6.53;;;3.45;;
27706;SDS011;36332;51.384;0.040;2023-02-28T14:11:48;3.17;;;2.83;;
27706;SDS011;36332;51.384;0.040;2023-02-28T14:17:03;3.33;;;2.03;;
27706;SDS011;36332;51.384;0.040;2023-02-28T14:19:34;4.93;;;2.97;;
27706;SDS011;36332;51.384;0.040;2023-02-28T14:33:19;5.15;;;2.70;;
27706;SDS011;36332;51.384;0.040;2023-02-28T14:41:41;5.28;;;1.92;;
27706;SDS011;36332;51.384;0.040;2023-02-28T14:47:11;6.65;;;2.40;;
27706;SDS011;36332;51.384;0.040;2023-02-28T14:49:43;5.05;;;2.40;;
27706;SDS011;36332;51.384;0.040;2023-02-28T14:52:27;5.53;;;2.35;;
27706;SDS011;36332;51.384;0.040;2023-02-28T14:55:03;2.63;;;2.28;;
27706;SDS011;36332;51.384;0.040;2023-02-28T14:57:40;6.65;;;2.10;;
27706;SDS011;36332;51.384;0.040;2023-02-28T15:00:20;5.10;;;2.08;;
27706;SDS011;36332;51.384;0.040;2023-02-28T15:02:56;6.07;;;2.13;;
27706;SDS011;36332;51.384;0.040;2023-02-28T15:05:29;4.47;;;2.58;;
27706;SDS011;36332;51.384;0.040;2023-02-28T15:10:42;3.58;;;2.35;;
27706;SDS011;36332;51.384;0.040;2023-02-28T15:13:13;5.28;;;2.13;;
27706;SDS011;36332;51.384;0.040;2023-02-28T15:16:16;7.32;;;2.25;;
27706;SDS011;36332;51.384;0.040;2023-02-28T15:18:50;2.60;;;1.75;;
27706;SDS011;36332;51.384;0.040;2023-02-28T15:21:25;3.05;;;1.77;;
27706;SDS011;36332;51.384;0.040;2023-02-28T15:24:04;4.20;;;2.20;;
27706;SDS011;36332;51.384;0.040;2023-02-28T15:26:38;5.20;;;1.77;;
27706;SDS011;36332;51.384;0.040;2023-02-28T15:29:10;6.55;;;1.70;;
27706;SDS011;36332;51.384;0.040;2023-02-28T15:31:43;4.93;;;1.58;;
27706;SDS011;36332;51.384;0.040;2023-02-28T15:34:36;2.65;;;1.83;;
27706;SDS011;36332;51.384;0.040;2023-02-28T15:37:26;6.60;;;1.75;;
27706;SDS011;36332;51.384;0.040;2023-02-28T15:40:28;2.55;;;1.55;;
27706;SDS011;36332;51.384;0.040;2023-02-28T15:43:06;2.83;;;1.83;;
27706;SDS011;36332;51.384;0.040;2023-02-28T15:48:19;7.05;;;1.92;;
27706;SDS011;36332;51.384;0.040;2023-02-28T15:51:24;10.82;;;2.10;;
27706;SDS011;36332;51.384;0.040;2023-02-28T15:53:51;10.02;;;1.85;;
27706;SDS011;36332;51.384;0.040;2023-02-28T15:56:25;5.88;;;2.30;;
27706;SDS011;36332;51.384;0.040;2023-02-28T15:58:55;6.68;;;1.90;;
27706;SDS011;36332;51.384;0.040;2023-02-28T16:01:26;5.72;;;1.88;;
27706;SDS011;36332;51.384;0.040;2023-02-28T16:03:59;2.45;;;2.13;;
27706;SDS011;36332;51.384;0.040;2023-02-28T16:06:45;7.50;;;2.83;;
27706;SDS011;36332;51.384;0.040;2023-02-28T16:09:35;5.90;;;2.47;;
27706;SDS011;36332;51.384;0.040;2023-02-28T16:12:04;4.78;;;1.88;;
27706;SDS011;36332;51.384;0.040;2023-02-28T16:14:32;4.85;;;2.20;;
27706;SDS011;36332;51.384;0.040;2023-02-28T16:17:03;2.53;;;2.00;;
27706;SDS011;36332;51.384;0.040;2023-02-28T16:19:39;13.48;;;3.17;;
27706;SDS011;36332;51.384;0.040;2023-02-28T16:22:07;3.55;;;2.38;;
27706;SDS011;36332;51.384;0.040;2023-02-28T16:24:36;5.38;;;2.15;;
27706;SDS011;36332;51.384;0.040;2023-02-28T16:27:05;8.00;;;2.65;;
27706;SDS011;36332;51.384;0.040;2023-02-28T16:29:34;4.28;;;2.17;;
27706;SDS011;36332;51.384;0.040;2023-02-28T16:32:04;3.30;;;2.47;;
27706;SDS011;36332;51.384;0.040;2023-02-28T16:34:33;8.65;;;3.30;;
27706;SDS011;36332;51.384;0.040;2023-02-28T16:37:00;2.97;;;2.45;;
27706;SDS011;36332;51.384;0.040;2023-02-28T16:39:29;10.52;;;2.25;;
27706;SDS011;36332;51.384;0.040;2023-02-28T16:41:56;6.15;;;2.53;;
27706;SDS011;36332;51.384;0.040;2023-02-28T16:44:26;5.50;;;2.83;;
27706;SDS011;36332;51.384;0.040;2023-02-28T16:46:59;5.00;;;2.45;;
27706;SDS011;36332;51.384;0.040;2023-02-28T16:49:27;3.63;;;2.40;;
27706;SDS011;36332;51.384;0.040;2023-02-28T16:51:56;4.45;;;2.78;;
27706;SDS011;36332;51.384;0.040;2023-02-28T16:54:24;7.90;;;2.83;;
27706;SDS011;36332;51.384;0.040;2023-02-28T16:56:52;6.38;;;2.05;;
27706;SDS011;36332;51.384;0.040;2023-02-28T16:59:22;5.03;;;2.10;;
27706;SDS011;36332;51.384;0.040;2023-02-28T17:01:51;4.93;;;2.60;;
27706;SDS011;36332;51.384;0.040;2023-02-28T17:04:19;4.25;;;2.47;;
27706;SDS011;36332;51.384;0.040;2023-02-28T17:06:47;4.57;;;2.42;;
27706;SDS011;36332;51.384;0.040;2023-02-28T17:09:18;7.18;;;2.38;;
27706;SDS011;36332;51.384;0.040;2023-02-28T17:11:54;4.68;;;1.80;;
27706;SDS011;36332;51.384;0.040;2023-02-28T17:14:23;2.08;;;1.70;;
27706;SDS011;36332;51.384;0.040;2023-02-28T17:16:51;4.88;;;1.25;;
27706;SDS011;36332;51.384;0.040;2023-02-28T17:19:18;8.80;;;3.78;;
27706;SDS011;36332;51.384;0.040;2023-02-28T17:21:46;2.53;;;1.70;;
27706;SDS011;36332;51.384;0.040;2023-02-28T17:24:14;4.45;;;1.40;;
27706;SDS011;36332;51.384;0.040;2023-02-28T17:26:51;4.00;;;1.45;;
27706;SDS011;36332;51.384;0.040;2023-02-28T17:29:20;2.10;;;1.85;;
27706;SDS011;36332;51.384;0.040;2023-02-28T17:31:48;3.17;;;1.45;;
27706;SDS011;36332;51.384;0.040;2023-02-28T17:34:16;2.78;;;2.35;;
27706;SDS011;36332;51.384;0.040;2023-02-28T17:36:45;2.17;;;1.77;;
27706;SDS011;36332;51.384;0.040;2023-02-28T17:39:15;2.78;;;2.03;;
27706;SDS011;36332;51.384;0.040;2023-02-28T17:41:53;6.05;;;1.80;;
27706;SDS011;36332;51.384;0.040;2023-02-28T17:44:21;2.60;;;1.70;;
27706;SDS011;36332;51.384;0.040;2023-02-28T17:46:51;6.28;;;1.80;;
27706;SDS011;36332;51.384;0.040;2023-02-28T17:49:20;3.13;;;1.67;;
27706;SDS011;36332;51.384;0.040;2023-02-28T17:51:48;8.38;;;3.80;;
27706;SDS011;36332;51.384;0.040;2023-02-28T17:54:17;4.55;;;2.08;;
27706;SDS011;36332;51.384;0.040;2023-02-28T17:56:45;3.47;;;2.10;;
27706;SDS011;36332;51.384;0.040;2023-02-28T17:59:13;4.28;;;2.53;;
27706;SDS011;36332;51.384;0.040;2023-02-28T18:01:40;3.95;;;2.05;;
27706;SDS011;36332;51.384;0.040;2023-02-28T18:04:08;2.17;;;1.85;;
27706;SDS011;36332;51.384;0.040;2023-02-28T18:09:14;5.25;;;1.83;;
27706;SDS011;36332;51.384;0.040;2023-02-28T18:11:43;1.73;;;1.60;;
27706;SDS011;36332;51.384;0.040;2023-02-28T18:14:15;8.25;;;2.03;;
27706;SDS011;36332;51.384;0.040;2023-02-28T18:16:43;6.32;;;1.70;;
27706;SDS011;36332;51.384;0.040;2023-02-28T18:19:12;5.20;;;2.22;;
27706;SDS011;36332;51.384;0.040;2023-02-28T18:21:44;3.85;;;1.95;;